Terminal Aerodrome Forecast
Issued by NWS Topeka, KS

Home | Current Version | Previous Version | Text Only | Print | Product List | Glossary Off
Versions: 1 2 3 4 5 6 7 8 9 10 11 12 13

000
FTUS43 KTOP 230950 AAB
TAFTOP
TAF AMD
KTOP 230950Z 2310/2406 01015G25KT P6SM BKN021
      TEMPO 2310/2313 SCT021 BKN035
     FM231300 36011KT P6SM BKN040
     FM231600 36011KT P6SM SCT100=

USA.gov is the U.S. government's official web portal to all federal, state and local government web resources and services.